Terminal Aerodrome Forecast
Issued by NWS

Home | Current Version | Previous Version | Text Only | Print | Product List | Glossary On
Versions: 1 2 3 4 5 6 7 8 9 10 11 12 13 14 15 16 17 18 19
000
FTUS43 KEAX 270520
TAFMKC
TAF
KMKC 270520Z 2706/2806 05008KT P6SM -SHRA SCT030 BKN060
      TEMPO 2706/2709 5SM -SHRA BR BKN025
     FM270900 04006KT 5SM -SHRA BR OVC022
      TEMPO 2710/2714 4SM -SHRA BR OVC009
     FM271400 01008KT P6SM OVC018
     FM272300 35007KT P6SM SCT025=

USA.gov is the U.S. government's official web portal to all federal, state and local government web resources and services.